sensor_id;sensor_type;location;lat;lon;timestamp;P1;durP1;ratioP1;P2;durP2;ratioP2
8993;SDS011;4532;50.886;4.700;2023-02-14T00:00:32;26.70;;;19.07;;
8993;SDS011;4532;50.886;4.700;2023-02-14T00:03:01;26.40;;;18.50;;
8993;SDS011;4532;50.886;4.700;2023-02-14T00:05:34;25.43;;;18.43;;
8993;SDS011;4532;50.886;4.700;2023-02-14T00:08:03;25.60;;;18.67;;
8993;SDS011;4532;50.886;4.700;2023-02-14T00:10:37;28.47;;;19.80;;
8993;SDS011;4532;50.886;4.700;2023-02-14T00:13:09;25.70;;;18.17;;
8993;SDS011;4532;50.886;4.700;2023-02-14T00:15:38;26.53;;;18.10;;
8993;SDS011;4532;50.886;4.700;2023-02-14T00:18:05;28.83;;;19.63;;
8993;SDS011;4532;50.886;4.700;2023-02-14T00:20:32;28.37;;;19.83;;
8993;SDS011;4532;50.886;4.700;2023-02-14T00:23:03;27.90;;;19.13;;
8993;SDS011;4532;50.886;4.700;2023-02-14T00:25:35;26.97;;;18.40;;
8993;SDS011;4532;50.886;4.700;2023-02-14T00:28:04;27.13;;;18.90;;
8993;SDS011;4532;50.886;4.700;2023-02-14T00:30:37;27.47;;;19.50;;
8993;SDS011;4532;50.886;4.700;2023-02-14T00:33:06;26.40;;;18.87;;
8993;SDS011;4532;50.886;4.700;2023-02-14T00:35:36;30.43;;;19.70;;
8993;SDS011;4532;50.886;4.700;2023-02-14T00:38:04;28.17;;;20.07;;
8993;SDS011;4532;50.886;4.700;2023-02-14T00:40:31;27.93;;;18.10;;
8993;SDS011;4532;50.886;4.700;2023-02-14T00:43:00;28.13;;;19.17;;
8993;SDS011;4532;50.886;4.700;2023-02-14T00:45:29;26.40;;;19.27;;
8993;SDS011;4532;50.886;4.700;2023-02-14T00:48:00;30.30;;;19.53;;
8993;SDS011;4532;50.886;4.700;2023-02-14T00:50:32;27.10;;;19.27;;
8993;SDS011;4532;50.886;4.700;2023-02-14T00:53:03;27.20;;;19.33;;
8993;SDS011;4532;50.886;4.700;2023-02-14T00:55:30;29.07;;;18.83;;
8993;SDS011;4532;50.886;4.700;2023-02-14T00:57:58;25.63;;;18.60;;
8993;SDS011;4532;50.886;4.700;2023-02-14T01:00:29;25.87;;;18.47;;
8993;SDS011;4532;50.886;4.700;2023-02-14T01:03:00;26.43;;;18.10;;
8993;SDS011;4532;50.886;4.700;2023-02-14T01:05:27;24.87;;;17.87;;
8993;SDS011;4532;50.886;4.700;2023-02-14T01:07:54;27.27;;;18.10;;
8993;SDS011;4532;50.886;4.700;2023-02-14T01:10:23;26.30;;;18.33;;
8993;SDS011;4532;50.886;4.700;2023-02-14T01:12:53;29.37;;;19.83;;
8993;SDS011;4532;50.886;4.700;2023-02-14T01:15:23;25.33;;;18.90;;
8993;SDS011;4532;50.886;4.700;2023-02-14T01:17:50;28.23;;;19.00;;
8993;SDS011;4532;50.886;4.700;2023-02-14T01:20:19;29.00;;;18.33;;
8993;SDS011;4532;50.886;4.700;2023-02-14T01:22:47;26.27;;;18.70;;
8993;SDS011;4532;50.886;4.700;2023-02-14T01:25:21;26.87;;;18.43;;
8993;SDS011;4532;50.886;4.700;2023-02-14T01:27:50;28.57;;;19.00;;
8993;SDS011;4532;50.886;4.700;2023-02-14T01:30:20;25.83;;;17.60;;
8993;SDS011;4532;50.886;4.700;2023-02-14T01:32:51;28.50;;;19.00;;
8993;SDS011;4532;50.886;4.700;2023-02-14T01:35:20;25.47;;;18.63;;
8993;SDS011;4532;50.886;4.700;2023-02-14T01:37:50;26.57;;;19.33;;
8993;SDS011;4532;50.886;4.700;2023-02-14T01:40:19;26.53;;;18.90;;
8993;SDS011;4532;50.886;4.700;2023-02-14T01:42:46;28.90;;;18.70;;
8993;SDS011;4532;50.886;4.700;2023-02-14T01:45:22;28.80;;;19.07;;
8993;SDS011;4532;50.886;4.700;2023-02-14T01:47:55;26.50;;;17.67;;
8993;SDS011;4532;50.886;4.700;2023-02-14T01:50:28;25.83;;;18.10;;
8993;SDS011;4532;50.886;4.700;2023-02-14T01:53:05;25.40;;;18.10;;
8993;SDS011;4532;50.886;4.700;2023-02-14T01:55:39;25.40;;;18.17;;
8993;SDS011;4532;50.886;4.700;2023-02-14T01:58:14;26.10;;;18.93;;
8993;SDS011;4532;50.886;4.700;2023-02-14T02:00:45;24.70;;;17.67;;
8993;SDS011;4532;50.886;4.700;2023-02-14T02:06:22;28.47;;;19.77;;
8993;SDS011;4532;50.886;4.700;2023-02-14T02:11:39;24.87;;;17.80;;
8993;SDS011;4532;50.886;4.700;2023-02-14T02:14:17;25.60;;;17.27;;
8993;SDS011;4532;50.886;4.700;2023-02-14T02:19:53;26.87;;;18.77;;
8993;SDS011;4532;50.886;4.700;2023-02-14T02:37:18;25.20;;;17.63;;
8993;SDS011;4532;50.886;4.700;2023-02-14T02:45:57;25.80;;;17.63;;
8993;SDS011;4532;50.886;4.700;2023-02-14T02:49:07;28.50;;;18.37;;
8993;SDS011;4532;50.886;4.700;2023-02-14T02:52:03;23.13;;;17.17;;
8993;SDS011;4532;50.886;4.700;2023-02-14T02:54:59;27.03;;;18.00;;
8993;SDS011;4532;50.886;4.700;2023-02-14T02:57:35;26.27;;;17.43;;
8993;SDS011;4532;50.886;4.700;2023-02-14T03:00:09;25.83;;;18.03;;
8993;SDS011;4532;50.886;4.700;2023-02-14T03:02:43;25.67;;;17.87;;
8993;SDS011;4532;50.886;4.700;2023-02-14T03:05:35;27.47;;;17.80;;
8993;SDS011;4532;50.886;4.700;2023-02-14T03:08:03;24.97;;;17.43;;
8993;SDS011;4532;50.886;4.700;2023-02-14T03:10:32;25.97;;;17.47;;
8993;SDS011;4532;50.886;4.700;2023-02-14T03:13:18;30.73;;;18.50;;
8993;SDS011;4532;50.886;4.700;2023-02-14T03:19:00;25.13;;;17.67;;
8993;SDS011;4532;50.886;4.700;2023-02-14T03:22:07;25.93;;;17.20;;
8993;SDS011;4532;50.886;4.700;2023-02-14T03:25:10;23.33;;;17.73;;
8993;SDS011;4532;50.886;4.700;2023-02-14T03:28:35;25.57;;;17.57;;
8993;SDS011;4532;50.886;4.700;2023-02-14T03:30:54;24.70;;;17.37;;
8993;SDS011;4532;50.886;4.700;2023-02-14T03:33:31;26.27;;;17.07;;
8993;SDS011;4532;50.886;4.700;2023-02-14T03:36:12;23.33;;;17.20;;
8993;SDS011;4532;50.886;4.700;2023-02-14T03:38:58;22.93;;;16.70;;
8993;SDS011;4532;50.886;4.700;2023-02-14T03:42:14;25.83;;;17.77;;
8993;SDS011;4532;50.886;4.700;2023-02-14T03:44:48;27.63;;;18.00;;
8993;SDS011;4532;50.886;4.700;2023-02-14T03:47:23;24.87;;;17.50;;
8993;SDS011;4532;50.886;4.700;2023-02-14T03:50:31;27.33;;;17.93;;
8993;SDS011;4532;50.886;4.700;2023-02-14T03:52:55;22.93;;;17.70;;
8993;SDS011;4532;50.886;4.700;2023-02-14T03:55:32;27.17;;;18.33;;
8993;SDS011;4532;50.886;4.700;2023-02-14T03:58:18;25.10;;;17.43;;
8993;SDS011;4532;50.886;4.700;2023-02-14T04:00:56;25.57;;;19.53;;
8993;SDS011;4532;50.886;4.700;2023-02-14T04:03:45;24.13;;;17.37;;
8993;SDS011;4532;50.886;4.700;2023-02-14T04:06:16;27.53;;;18.33;;
8993;SDS011;4532;50.886;4.700;2023-02-14T04:08:44;27.30;;;18.37;;
8993;SDS011;4532;50.886;4.700;2023-02-14T04:11:14;24.90;;;17.50;;
8993;SDS011;4532;50.886;4.700;2023-02-14T04:13:41;24.73;;;18.07;;
8993;SDS011;4532;50.886;4.700;2023-02-14T04:16:11;27.20;;;18.17;;
8993;SDS011;4532;50.886;4.700;2023-02-14T04:18:40;30.47;;;19.70;;
8993;SDS011;4532;50.886;4.700;2023-02-14T04:21:26;28.57;;;19.20;;
8993;SDS011;4532;50.886;4.700;2023-02-14T04:23:55;25.80;;;19.00;;
8993;SDS011;4532;50.886;4.700;2023-02-14T04:26:24;24.80;;;18.40;;
8993;SDS011;4532;50.886;4.700;2023-02-14T04:28:54;26.07;;;18.53;;
8993;SDS011;4532;50.886;4.700;2023-02-14T04:31:23;26.33;;;18.87;;
8993;SDS011;4532;50.886;4.700;2023-02-14T04:33:58;26.23;;;18.60;;
8993;SDS011;4532;50.886;4.700;2023-02-14T04:36:25;25.80;;;17.70;;
8993;SDS011;4532;50.886;4.700;2023-02-14T04:38:57;25.63;;;18.70;;
8993;SDS011;4532;50.886;4.700;2023-02-14T04:41:24;28.23;;;18.83;;
8993;SDS011;4532;50.886;4.700;2023-02-14T04:43:53;24.80;;;18.33;;
8993;SDS011;4532;50.886;4.700;2023-02-14T04:46:20;25.67;;;18.13;;
8993;SDS011;4532;50.886;4.700;2023-02-14T04:48:50;25.43;;;17.93;;
8993;SDS011;4532;50.886;4.700;2023-02-14T04:51:24;24.83;;;17.77;;
8993;SDS011;4532;50.886;4.700;2023-02-14T04:53:53;24.93;;;18.13;;
8993;SDS011;4532;50.886;4.700;2023-02-14T04:56:22;29.60;;;18.00;;
8993;SDS011;4532;50.886;4.700;2023-02-14T04:58:55;27.50;;;17.90;;
8993;SDS011;4532;50.886;4.700;2023-02-14T05:01:24;25.00;;;17.63;;
8993;SDS011;4532;50.886;4.700;2023-02-14T05:03:54;29.00;;;19.00;;
8993;SDS011;4532;50.886;4.700;2023-02-14T05:06:21;27.40;;;18.93;;
8993;SDS011;4532;50.886;4.700;2023-02-14T05:08:48;27.33;;;17.93;;
8993;SDS011;4532;50.886;4.700;2023-02-14T05:11:15;29.90;;;18.90;;
8993;SDS011;4532;50.886;4.700;2023-02-14T05:13:47;29.60;;;19.33;;
8993;SDS011;4532;50.886;4.700;2023-02-14T05:16:17;27.03;;;18.73;;
8993;SDS011;4532;50.886;4.700;2023-02-14T05:18:47;27.07;;;18.37;;
8993;SDS011;4532;50.886;4.700;2023-02-14T05:21:19;21.80;;;16.97;;
8993;SDS011;4532;50.886;4.700;2023-02-14T05:23:46;26.33;;;17.73;;
8993;SDS011;4532;50.886;4.700;2023-02-14T05:26:13;26.17;;;18.67;;
8993;SDS011;4532;50.886;4.700;2023-02-14T05:28:43;27.03;;;18.27;;
8993;SDS011;4532;50.886;4.700;2023-02-14T05:31:10;27.50;;;18.53;;
8993;SDS011;4532;50.886;4.700;2023-02-14T05:33:37;26.50;;;17.67;;
8993;SDS011;4532;50.886;4.700;2023-02-14T05:36:07;28.37;;;18.40;;
8993;SDS011;4532;50.886;4.700;2023-02-14T05:38:35;31.10;;;18.97;;
8993;SDS011;4532;50.886;4.700;2023-02-14T05:41:02;26.33;;;18.33;;
8993;SDS011;4532;50.886;4.700;2023-02-14T05:43:33;30.53;;;18.97;;
8993;SDS011;4532;50.886;4.700;2023-02-14T05:46:00;27.93;;;18.13;;
8993;SDS011;4532;50.886;4.700;2023-02-14T05:48:30;28.03;;;19.10;;
8993;SDS011;4532;50.886;4.700;2023-02-14T05:51:06;30.03;;;18.47;;
8993;SDS011;4532;50.886;4.700;2023-02-14T05:53:37;27.33;;;18.30;;
8993;SDS011;4532;50.886;4.700;2023-02-14T05:56:04;29.87;;;18.47;;
8993;SDS011;4532;50.886;4.700;2023-02-14T05:58:31;26.83;;;18.50;;
8993;SDS011;4532;50.886;4.700;2023-02-14T06:01:01;26.97;;;18.60;;
8993;SDS011;4532;50.886;4.700;2023-02-14T06:03:28;27.80;;;19.53;;
8993;SDS011;4532;50.886;4.700;2023-02-14T06:05:56;29.70;;;19.60;;
8993;SDS011;4532;50.886;4.700;2023-02-14T06:08:25;28.30;;;19.60;;
8993;SDS011;4532;50.886;4.700;2023-02-14T06:10:54;32.30;;;19.90;;
8993;SDS011;4532;50.886;4.700;2023-02-14T06:13:24;29.93;;;20.17;;
8993;SDS011;4532;50.886;4.700;2023-02-14T06:15:51;25.57;;;19.00;;
8993;SDS011;4532;50.886;4.700;2023-02-14T06:18:18;28.77;;;19.47;;
8993;SDS011;4532;50.886;4.700;2023-02-14T06:20:51;28.87;;;19.03;;
8993;SDS011;4532;50.886;4.700;2023-02-14T06:23:19;30.83;;;19.83;;
8993;SDS011;4532;50.886;4.700;2023-02-14T06:25:46;28.03;;;19.53;;
8993;SDS011;4532;50.886;4.700;2023-02-14T06:28:13;27.80;;;19.87;;
8993;SDS011;4532;50.886;4.700;2023-02-14T06:30:40;29.43;;;19.57;;
8993;SDS011;4532;50.886;4.700;2023-02-14T06:33:10;30.60;;;20.23;;
8993;SDS011;4532;50.886;4.700;2023-02-14T06:35:40;29.27;;;19.57;;
8993;SDS011;4532;50.886;4.700;2023-02-14T06:38:07;34.50;;;20.07;;
8993;SDS011;4532;50.886;4.700;2023-02-14T06:40:34;30.40;;;19.63;;
8993;SDS011;4532;50.886;4.700;2023-02-14T06:43:03;28.93;;;19.60;;
8993;SDS011;4532;50.886;4.700;2023-02-14T06:45:33;30.63;;;19.53;;
8993;SDS011;4532;50.886;4.700;2023-02-14T06:48:00;31.97;;;20.67;;
8993;SDS011;4532;50.886;4.700;2023-02-14T06:50:30;31.00;;;19.90;;
8993;SDS011;4532;50.886;4.700;2023-02-14T06:52:57;31.53;;;20.20;;
8993;SDS011;4532;50.886;4.700;2023-02-14T06:55:26;35.77;;;20.63;;
8993;SDS011;4532;50.886;4.700;2023-02-14T06:57:53;30.33;;;19.50;;
8993;SDS011;4532;50.886;4.700;2023-02-14T07:00:21;29.23;;;19.73;;
8993;SDS011;4532;50.886;4.700;2023-02-14T07:02:53;30.07;;;19.80;;
8993;SDS011;4532;50.886;4.700;2023-02-14T07:05:20;33.43;;;19.40;;
8993;SDS011;4532;50.886;4.700;2023-02-14T07:07:47;31.23;;;19.47;;
8993;SDS011;4532;50.886;4.700;2023-02-14T07:10:17;33.70;;;20.30;;
8993;SDS011;4532;50.886;4.700;2023-02-14T07:12:44;36.97;;;21.07;;
8993;SDS011;4532;50.886;4.700;2023-02-14T07:15:18;28.93;;;19.80;;
8993;SDS011;4532;50.886;4.700;2023-02-14T07:17:51;26.93;;;19.40;;
8993;SDS011;4532;50.886;4.700;2023-02-14T07:20:18;28.40;;;19.27;;
8993;SDS011;4532;50.886;4.700;2023-02-14T07:22:46;32.10;;;19.47;;
8993;SDS011;4532;50.886;4.700;2023-02-14T07:25:13;25.83;;;18.90;;
8993;SDS011;4532;50.886;4.700;2023-02-14T07:27:44;32.83;;;20.43;;
8993;SDS011;4532;50.886;4.700;2023-02-14T07:30:16;29.67;;;19.50;;
8993;SDS011;4532;50.886;4.700;2023-02-14T07:32:48;33.67;;;20.70;;
8993;SDS011;4532;50.886;4.700;2023-02-14T07:35:16;29.00;;;19.13;;
8993;SDS011;4532;50.886;4.700;2023-02-14T07:37:47;30.23;;;19.83;;
8993;SDS011;4532;50.886;4.700;2023-02-14T07:40:16;30.43;;;19.77;;
8993;SDS011;4532;50.886;4.700;2023-02-14T07:42:51;34.27;;;19.53;;
8993;SDS011;4532;50.886;4.700;2023-02-14T07:45:20;37.47;;;20.00;;
8993;SDS011;4532;50.886;4.700;2023-02-14T07:47:48;43.27;;;22.30;;
8993;SDS011;4532;50.886;4.700;2023-02-14T07:50:20;37.50;;;20.40;;
8993;SDS011;4532;50.886;4.700;2023-02-14T07:52:51;32.37;;;20.13;;
8993;SDS011;4532;50.886;4.700;2023-02-14T07:55:18;36.23;;;20.83;;
8993;SDS011;4532;50.886;4.700;2023-02-14T07:57:47;32.63;;;21.13;;
8993;SDS011;4532;50.886;4.700;2023-02-14T08:00:17;43.97;;;22.37;;
8993;SDS011;4532;50.886;4.700;2023-02-14T08:02:47;34.50;;;20.77;;
8993;SDS011;4532;50.886;4.700;2023-02-14T08:05:19;33.73;;;20.13;;
8993;SDS011;4532;50.886;4.700;2023-02-14T08:07:46;29.53;;;19.63;;
8993;SDS011;4532;50.886;4.700;2023-02-14T08:10:19;31.87;;;20.30;;
8993;SDS011;4532;50.886;4.700;2023-02-14T08:12:49;33.10;;;21.03;;
8993;SDS011;4532;50.886;4.700;2023-02-14T08:15:28;31.17;;;19.77;;
8993;SDS011;4532;50.886;4.700;2023-02-14T08:18:19;27.90;;;19.40;;
8993;SDS011;4532;50.886;4.700;2023-02-14T08:20:51;33.20;;;19.83;;
8993;SDS011;4532;50.886;4.700;2023-02-14T08:23:18;30.63;;;19.57;;
8993;SDS011;4532;50.886;4.700;2023-02-14T08:25:49;33.00;;;21.87;;
8993;SDS011;4532;50.886;4.700;2023-02-14T08:28:23;34.10;;;21.00;;
8993;SDS011;4532;50.886;4.700;2023-02-14T08:30:51;30.67;;;20.70;;
8993;SDS011;4532;50.886;4.700;2023-02-14T08:33:21;33.03;;;20.73;;
8993;SDS011;4532;50.886;4.700;2023-02-14T08:35:49;35.20;;;21.23;;
8993;SDS011;4532;50.886;4.700;2023-02-14T08:38:20;33.37;;;21.10;;
8993;SDS011;4532;50.886;4.700;2023-02-14T08:40:47;33.97;;;21.97;;
8993;SDS011;4532;50.886;4.700;2023-02-14T08:43:15;35.63;;;21.40;;
8993;SDS011;4532;50.886;4.700;2023-02-14T08:45:42;34.97;;;20.87;;
8993;SDS011;4532;50.886;4.700;2023-02-14T08:48:12;38.30;;;21.07;;
8993;SDS011;4532;50.886;4.700;2023-02-14T08:50:41;32.13;;;19.63;;
8993;SDS011;4532;50.886;4.700;2023-02-14T08:53:11;29.20;;;19.53;;
8993;SDS011;4532;50.886;4.700;2023-02-14T08:55:41;30.87;;;19.47;;
8993;SDS011;4532;50.886;4.700;2023-02-14T08:58:08;32.30;;;21.20;;
8993;SDS011;4532;50.886;4.700;2023-02-14T09:00:37;31.67;;;19.90;;
8993;SDS011;4532;50.886;4.700;2023-02-14T09:03:05;31.87;;;19.60;;
8993;SDS011;4532;50.886;4.700;2023-02-14T09:05:35;30.03;;;19.83;;
8993;SDS011;4532;50.886;4.700;2023-02-14T09:08:02;33.30;;;20.30;;
8993;SDS011;4532;50.886;4.700;2023-02-14T09:10:33;35.47;;;20.60;;
8993;SDS011;4532;50.886;4.700;2023-02-14T09:13:02;31.33;;;20.37;;
8993;SDS011;4532;50.886;4.700;2023-02-14T09:15:32;30.50;;;19.50;;
8993;SDS011;4532;50.886;4.700;2023-02-14T09:18:00;39.00;;;22.07;;
8993;SDS011;4532;50.886;4.700;2023-02-14T09:20:27;35.27;;;20.90;;
8993;SDS011;4532;50.886;4.700;2023-02-14T09:22:59;37.03;;;22.17;;
8993;SDS011;4532;50.886;4.700;2023-02-14T09:25:28;30.80;;;20.03;;
8993;SDS011;4532;50.886;4.700;2023-02-14T09:27:58;33.67;;;21.23;;
8993;SDS011;4532;50.886;4.700;2023-02-14T09:30:25;31.73;;;21.37;;
8993;SDS011;4532;50.886;4.700;2023-02-14T09:32:55;33.33;;;22.70;;
8993;SDS011;4532;50.886;4.700;2023-02-14T09:35:22;35.60;;;22.17;;
8993;SDS011;4532;50.886;4.700;2023-02-14T09:38:11;36.93;;;21.80;;
8993;SDS011;4532;50.886;4.700;2023-02-14T09:40:40;32.10;;;21.63;;
8993;SDS011;4532;50.886;4.700;2023-02-14T09:46:07;30.27;;;20.97;;
8993;SDS011;4532;50.886;4.700;2023-02-14T09:48:43;34.07;;;22.20;;
8993;SDS011;4532;50.886;4.700;2023-02-14T09:51:14;35.07;;;21.60;;
8993;SDS011;4532;50.886;4.700;2023-02-14T09:53:49;35.87;;;23.57;;
8993;SDS011;4532;50.886;4.700;2023-02-14T09:56:55;35.23;;;21.80;;
8993;SDS011;4532;50.886;4.700;2023-02-14T09:59:46;34.57;;;23.13;;
8993;SDS011;4532;50.886;4.700;2023-02-14T10:02:30;38.67;;;22.57;;
8993;SDS011;4532;50.886;4.700;2023-02-14T10:05:25;35.33;;;23.00;;
8993;SDS011;4532;50.886;4.700;2023-02-14T10:11:09;34.97;;;22.17;;
8993;SDS011;4532;50.886;4.700;2023-02-14T10:13:42;44.37;;;24.70;;
8993;SDS011;4532;50.886;4.700;2023-02-14T10:16:16;90.53;;;32.77;;
8993;SDS011;4532;50.886;4.700;2023-02-14T10:22:20;38.57;;;22.27;;
8993;SDS011;4532;50.886;4.700;2023-02-14T10:27:37;47.83;;;24.97;;
8993;SDS011;4532;50.886;4.700;2023-02-14T10:30:16;45.33;;;25.20;;
8993;SDS011;4532;50.886;4.700;2023-02-14T10:32:49;34.87;;;24.03;;
8993;SDS011;4532;50.886;4.700;2023-02-14T10:47:06;32.77;;;22.33;;
8993;SDS011;4532;50.886;4.700;2023-02-14T10:58:25;31.93;;;21.13;;
8993;SDS011;4532;50.886;4.700;2023-02-14T11:01:09;32.03;;;21.40;;
8993;SDS011;4532;50.886;4.700;2023-02-14T11:03:41;32.53;;;21.37;;
8993;SDS011;4532;50.886;4.700;2023-02-14T11:06:32;29.77;;;21.47;;
8993;SDS011;4532;50.886;4.700;2023-02-14T11:08:59;31.77;;;21.53;;
8993;SDS011;4532;50.886;4.700;2023-02-14T11:11:39;32.47;;;21.30;;
8993;SDS011;4532;50.886;4.700;2023-02-14T11:14:18;32.70;;;22.70;;
8993;SDS011;4532;50.886;4.700;2023-02-14T11:16:58;29.77;;;20.30;;
8993;SDS011;4532;50.886;4.700;2023-02-14T11:19:54;28.70;;;21.00;;
8993;SDS011;4532;50.886;4.700;2023-02-14T11:22:30;33.07;;;22.33;;
8993;SDS011;4532;50.886;4.700;2023-02-14T11:25:06;32.70;;;21.87;;
8993;SDS011;4532;50.886;4.700;2023-02-14T11:27:46;31.47;;;22.50;;
8993;SDS011;4532;50.886;4.700;2023-02-14T11:33:05;29.07;;;19.43;;
8993;SDS011;4532;50.886;4.700;2023-02-14T11:35:38;33.70;;;21.07;;
8993;SDS011;4532;50.886;4.700;2023-02-14T11:38:19;29.67;;;20.73;;
8993;SDS011;4532;50.886;4.700;2023-02-14T11:41:01;30.47;;;20.40;;
8993;SDS011;4532;50.886;4.700;2023-02-14T11:48:56;34.03;;;20.50;;
8993;SDS011;4532;50.886;4.700;2023-02-14T11:51:49;28.73;;;18.83;;
8993;SDS011;4532;50.886;4.700;2023-02-14T11:54:37;33.07;;;20.03;;
8993;SDS011;4532;50.886;4.700;2023-02-14T11:59:49;33.87;;;21.20;;
8993;SDS011;4532;50.886;4.700;2023-02-14T12:04:59;32.37;;;20.87;;
8993;SDS011;4532;50.886;4.700;2023-02-14T12:07:30;33.77;;;20.50;;
8993;SDS011;4532;50.886;4.700;2023-02-14T12:10:25;28.87;;;19.50;;
8993;SDS011;4532;50.886;4.700;2023-02-14T12:26:35;25.93;;;17.03;;
8993;SDS011;4532;50.886;4.700;2023-02-14T12:35:43;29.67;;;18.57;;
8993;SDS011;4532;50.886;4.700;2023-02-14T12:38:21;30.90;;;18.57;;
8993;SDS011;4532;50.886;4.700;2023-02-14T12:43:54;31.77;;;19.03;;
8993;SDS011;4532;50.886;4.700;2023-02-14T12:55:17;31.03;;;18.97;;
8993;SDS011;4532;50.886;4.700;2023-02-14T13:22:43;24.70;;;16.70;;
8993;SDS011;4532;50.886;4.700;2023-02-14T13:25:26;25.17;;;17.00;;
8993;SDS011;4532;50.886;4.700;2023-02-14T13:28:00;25.67;;;17.20;;
8993;SDS011;4532;50.886;4.700;2023-02-14T13:30:32;24.30;;;16.57;;
8993;SDS011;4532;50.886;4.700;2023-02-14T13:33:02;25.93;;;16.00;;
8993;SDS011;4532;50.886;4.700;2023-02-14T13:36:04;26.07;;;16.97;;
8993;SDS011;4532;50.886;4.700;2023-02-14T13:38:46;37.30;;;18.83;;
8993;SDS011;4532;50.886;4.700;2023-02-14T13:41:18;30.83;;;18.23;;
8993;SDS011;4532;50.886;4.700;2023-02-14T13:51:53;26.20;;;17.67;;
8993;SDS011;4532;50.886;4.700;2023-02-14T13:54:27;28.97;;;17.70;;
8993;SDS011;4532;50.886;4.700;2023-02-14T13:57:02;26.37;;;17.17;;
8993;SDS011;4532;50.886;4.700;2023-02-14T14:05:43;25.43;;;16.63;;
8993;SDS011;4532;50.886;4.700;2023-02-14T14:10:47;24.87;;;16.93;;
8993;SDS011;4532;50.886;4.700;2023-02-14T14:13:52;27.23;;;16.27;;
8993;SDS011;4532;50.886;4.700;2023-02-14T14:18:50;26.73;;;16.23;;
8993;SDS011;4532;50.886;4.700;2023-02-14T14:21:32;34.93;;;17.67;;
8993;SDS011;4532;50.886;4.700;2023-02-14T14:27:20;86.83;;;26.00;;
8993;SDS011;4532;50.886;4.700;2023-02-14T14:29:57;41.73;;;19.27;;
8993;SDS011;4532;50.886;4.700;2023-02-14T14:35:16;29.63;;;17.33;;
8993;SDS011;4532;50.886;4.700;2023-02-14T14:37:54;30.10;;;18.10;;
8993;SDS011;4532;50.886;4.700;2023-02-14T14:40:28;25.90;;;16.23;;
8993;SDS011;4532;50.886;4.700;2023-02-14T14:43:04;28.97;;;18.27;;
8993;SDS011;4532;50.886;4.700;2023-02-14T14:45:46;26.93;;;16.93;;
8993;SDS011;4532;50.886;4.700;2023-02-14T14:48:17;28.40;;;18.03;;
8993;SDS011;4532;50.886;4.700;2023-02-14T14:50:52;27.30;;;17.03;;
8993;SDS011;4532;50.886;4.700;2023-02-14T14:53:23;28.73;;;17.57;;
8993;SDS011;4532;50.886;4.700;2023-02-14T14:56:03;27.67;;;17.30;;
8993;SDS011;4532;50.886;4.700;2023-02-14T14:58:39;23.83;;;16.80;;
8993;SDS011;4532;50.886;4.700;2023-02-14T15:01:10;29.10;;;17.07;;
8993;SDS011;4532;50.886;4.700;2023-02-14T15:03:46;25.23;;;16.50;;
8993;SDS011;4532;50.886;4.700;2023-02-14T15:06:20;26.67;;;17.53;;
8993;SDS011;4532;50.886;4.700;2023-02-14T15:08:53;25.83;;;17.00;;
8993;SDS011;4532;50.886;4.700;2023-02-14T15:11:24;27.90;;;16.87;;
8993;SDS011;4532;50.886;4.700;2023-02-14T15:14:14;26.20;;;16.40;;
8993;SDS011;4532;50.886;4.700;2023-02-14T15:22:16;27.30;;;16.50;;
8993;SDS011;4532;50.886;4.700;2023-02-14T15:24:46;29.37;;;18.50;;
8993;SDS011;4532;50.886;4.700;2023-02-14T15:27:15;29.63;;;18.33;;
8993;SDS011;4532;50.886;4.700;2023-02-14T15:29:55;31.87;;;17.97;;
8993;SDS011;4532;50.886;4.700;2023-02-14T15:32:25;27.63;;;17.33;;
8993;SDS011;4532;50.886;4.700;2023-02-14T15:34:58;26.97;;;17.53;;
8993;SDS011;4532;50.886;4.700;2023-02-14T15:37:30;25.93;;;17.07;;
8993;SDS011;4532;50.886;4.700;2023-02-14T15:39:59;26.47;;;17.40;;
8993;SDS011;4532;50.886;4.700;2023-02-14T15:47:49;25.87;;;17.30;;
8993;SDS011;4532;50.886;4.700;2023-02-14T15:50:19;26.53;;;17.00;;
8993;SDS011;4532;50.886;4.700;2023-02-14T15:52:49;25.10;;;16.83;;
8993;SDS011;4532;50.886;4.700;2023-02-14T15:55:19;28.03;;;18.03;;
8993;SDS011;4532;50.886;4.700;2023-02-14T15:58:00;30.33;;;17.97;;
8993;SDS011;4532;50.886;4.700;2023-02-14T16:00:30;29.63;;;17.60;;
8993;SDS011;4532;50.886;4.700;2023-02-14T16:03:03;27.80;;;17.97;;
8993;SDS011;4532;50.886;4.700;2023-02-14T16:05:33;31.93;;;18.80;;
8993;SDS011;4532;50.886;4.700;2023-02-14T16:12:57;28.87;;;17.90;;
8993;SDS011;4532;50.886;4.700;2023-02-14T16:15:33;33.40;;;17.60;;
8993;SDS011;4532;50.886;4.700;2023-02-14T16:18:15;30.03;;;17.90;;
8993;SDS011;4532;50.886;4.700;2023-02-14T16:20:50;29.83;;;18.13;;
8993;SDS011;4532;50.886;4.700;2023-02-14T16:23:23;31.20;;;17.60;;
8993;SDS011;4532;50.886;4.700;2023-02-14T16:25:52;31.57;;;18.17;;
8993;SDS011;4532;50.886;4.700;2023-02-14T16:28:22;27.47;;;17.50;;
8993;SDS011;4532;50.886;4.700;2023-02-14T16:30:57;26.87;;;17.57;;
8993;SDS011;4532;50.886;4.700;2023-02-14T16:33:37;26.50;;;18.23;;
8993;SDS011;4532;50.886;4.700;2023-02-14T16:36:16;28.83;;;18.93;;
8993;SDS011;4532;50.886;4.700;2023-02-14T16:38:54;28.67;;;20.00;;
8993;SDS011;4532;50.886;4.700;2023-02-14T16:41:25;27.83;;;18.53;;
8993;SDS011;4532;50.886;4.700;2023-02-14T16:43:54;29.90;;;19.27;;
8993;SDS011;4532;50.886;4.700;2023-02-14T16:46:22;29.50;;;19.70;;
8993;SDS011;4532;50.886;4.700;2023-02-14T16:48:54;31.40;;;20.40;;
8993;SDS011;4532;50.886;4.700;2023-02-14T16:51:25;26.30;;;18.80;;
8993;SDS011;4532;50.886;4.700;2023-02-14T16:53:55;30.53;;;19.00;;
8993;SDS011;4532;50.886;4.700;2023-02-14T16:56:27;29.10;;;20.10;;
8993;SDS011;4532;50.886;4.700;2023-02-14T16:59:04;31.87;;;20.83;;
8993;SDS011;4532;50.886;4.700;2023-02-14T17:01:31;32.60;;;20.10;;
8993;SDS011;4532;50.886;4.700;2023-02-14T17:04:01;30.00;;;19.80;;
8993;SDS011;4532;50.886;4.700;2023-02-14T17:06:28;29.13;;;20.00;;
8993;SDS011;4532;50.886;4.700;2023-02-14T17:08:58;29.60;;;19.63;;
8993;SDS011;4532;50.886;4.700;2023-02-14T17:11:30;27.17;;;19.77;;
8993;SDS011;4532;50.886;4.700;2023-02-14T17:14:00;37.17;;;20.30;;
8993;SDS011;4532;50.886;4.700;2023-02-14T17:16:30;30.13;;;19.87;;
8993;SDS011;4532;50.886;4.700;2023-02-14T17:18:58;29.70;;;19.63;;
8993;SDS011;4532;50.886;4.700;2023-02-14T17:21:30;31.10;;;20.63;;
8993;SDS011;4532;50.886;4.700;2023-02-14T17:24:01;31.43;;;20.87;;
8993;SDS011;4532;50.886;4.700;2023-02-14T17:26:31;30.33;;;20.07;;
8993;SDS011;4532;50.886;4.700;2023-02-14T17:28:59;33.43;;;20.97;;
8993;SDS011;4532;50.886;4.700;2023-02-14T17:31:26;33.00;;;20.90;;
8993;SDS011;4532;50.886;4.700;2023-02-14T17:33:55;33.13;;;20.73;;
8993;SDS011;4532;50.886;4.700;2023-02-14T17:36:23;31.87;;;21.03;;
8993;SDS011;4532;50.886;4.700;2023-02-14T17:38:56;32.33;;;21.20;;
8993;SDS011;4532;50.886;4.700;2023-02-14T17:41:25;32.20;;;20.40;;
8993;SDS011;4532;50.886;4.700;2023-02-14T17:43:55;31.03;;;20.80;;
8993;SDS011;4532;50.886;4.700;2023-02-14T17:46:27;31.23;;;21.63;;
8993;SDS011;4532;50.886;4.700;2023-02-14T17:48:59;31.17;;;20.23;;
8993;SDS011;4532;50.886;4.700;2023-02-14T17:51:30;33.20;;;20.97;;
8993;SDS011;4532;50.886;4.700;2023-02-14T17:53:58;33.93;;;21.13;;
8993;SDS011;4532;50.886;4.700;2023-02-14T17:56:26;35.97;;;22.47;;
8993;SDS011;4532;50.886;4.700;2023-02-14T17:58:54;30.53;;;21.83;;
8993;SDS011;4532;50.886;4.700;2023-02-14T18:01:26;33.57;;;22.27;;
8993;SDS011;4532;50.886;4.700;2023-02-14T18:03:58;33.13;;;21.63;;
8993;SDS011;4532;50.886;4.700;2023-02-14T18:06:32;35.17;;;22.53;;
8993;SDS011;4532;50.886;4.700;2023-02-14T18:08:59;33.57;;;20.97;;
8993;SDS011;4532;50.886;4.700;2023-02-14T18:11:32;33.30;;;20.33;;
8993;SDS011;4532;50.886;4.700;2023-02-14T18:13:59;34.43;;;21.70;;
8993;SDS011;4532;50.886;4.700;2023-02-14T18:16:30;32.07;;;21.57;;
8993;SDS011;4532;50.886;4.700;2023-02-14T18:19:00;34.67;;;22.10;;